sensor_id;sensor_type;location;lat;lon;timestamp;temperature;humidity
12446;DHT22;6287;50.984;7.022;2023-03-24T00:00:21;13.00;99.90
12446;DHT22;6287;50.984;7.022;2023-03-24T00:02:51;13.00;99.90
12446;DHT22;6287;50.984;7.022;2023-03-24T00:05:22;13.00;99.90
12446;DHT22;6287;50.984;7.022;2023-03-24T00:07:52;13.00;99.90
12446;DHT22;6287;50.984;7.022;2023-03-24T00:10:19;13.00;99.90
12446;DHT22;6287;50.984;7.022;2023-03-24T00:12:47;13.00;99.90
12446;DHT22;6287;50.984;7.022;2023-03-24T00:15:23;13.00;99.90
12446;DHT22;6287;50.984;7.022;2023-03-24T00:17:51;13.10;99.90
12446;DHT22;6287;50.984;7.022;2023-03-24T00:20:19;13.10;99.90
12446;DHT22;6287;50.984;7.022;2023-03-24T00:22:52;13.10;99.90
12446;DHT22;6287;50.984;7.022;2023-03-24T00:25:25;13.10;99.90
12446;DHT22;6287;50.984;7.022;2023-03-24T00:27:58;13.10;99.90
12446;DHT22;6287;50.984;7.022;2023-03-24T00:30:24;13.10;99.90
12446;DHT22;6287;50.984;7.022;2023-03-24T00:32:53;13.20;99.90
12446;DHT22;6287;50.984;7.022;2023-03-24T00:35:18;13.10;99.90
12446;DHT22;6287;50.984;7.022;2023-03-24T00:37:45;13.20;99.90
12446;DHT22;6287;50.984;7.022;2023-03-24T00:40:16;13.20;99.90
12446;DHT22;6287;50.984;7.022;2023-03-24T00:42:52;13.20;99.90
12446;DHT22;6287;50.984;7.022;2023-03-24T00:45:21;13.20;99.90
12446;DHT22;6287;50.984;7.022;2023-03-24T00:47:52;13.20;99.90
12446;DHT22;6287;50.984;7.022;2023-03-24T00:50:22;13.20;99.90
12446;DHT22;6287;50.984;7.022;2023-03-24T00:52:54;13.10;99.90
12446;DHT22;6287;50.984;7.022;2023-03-24T00:55:22;13.10;99.90
12446;DHT22;6287;50.984;7.022;2023-03-24T00:57:50;13.10;99.90
12446;DHT22;6287;50.984;7.022;2023-03-24T01:00:25;13.10;99.90
12446;DHT22;6287;50.984;7.022;2023-03-24T01:02:55;13.10;99.90
12446;DHT22;6287;50.984;7.022;2023-03-24T01:05:26;13.00;99.90
12446;DHT22;6287;50.984;7.022;2023-03-24T01:07:59;13.00;99.90
12446;DHT22;6287;50.984;7.022;2023-03-24T01:10:29;13.00;99.90
12446;DHT22;6287;50.984;7.022;2023-03-24T01:12:57;13.00;99.90
12446;DHT22;6287;50.984;7.022;2023-03-24T01:15:30;13.00;99.90
12446;DHT22;6287;50.984;7.022;2023-03-24T01:17:58;12.90;99.90
12446;DHT22;6287;50.984;7.022;2023-03-24T01:20:28;12.90;99.90
12446;DHT22;6287;50.984;7.022;2023-03-24T01:22:58;12.90;99.90
12446;DHT22;6287;50.984;7.022;2023-03-24T01:25:24;12.90;99.90
12446;DHT22;6287;50.984;7.022;2023-03-24T01:27:52;12.90;99.90
12446;DHT22;6287;50.984;7.022;2023-03-24T01:30:24;12.90;99.90
12446;DHT22;6287;50.984;7.022;2023-03-24T01:32:51;12.90;99.90
12446;DHT22;6287;50.984;7.022;2023-03-24T01:35:20;12.90;99.90
12446;DHT22;6287;50.984;7.022;2023-03-24T01:37:48;12.90;99.90
12446;DHT22;6287;50.984;7.022;2023-03-24T01:40:21;13.00;99.90
12446;DHT22;6287;50.984;7.022;2023-03-24T01:42:52;13.10;99.90
12446;DHT22;6287;50.984;7.022;2023-03-24T01:48:08;13.20;99.90
12446;DHT22;6287;50.984;7.022;2023-03-24T01:50:42;13.20;99.90
12446;DHT22;6287;50.984;7.022;2023-03-24T01:53:09;13.20;99.90
12446;DHT22;6287;50.984;7.022;2023-03-24T01:55:36;13.30;99.90
12446;DHT22;6287;50.984;7.022;2023-03-24T01:58:02;13.30;99.90
12446;DHT22;6287;50.984;7.022;2023-03-24T02:00:28;13.40;99.90
12446;DHT22;6287;50.984;7.022;2023-03-24T02:03:07;13.40;99.90
12446;DHT22;6287;50.984;7.022;2023-03-24T02:05:38;13.40;99.90
12446;DHT22;6287;50.984;7.022;2023-03-24T02:10:44;13.50;99.90
12446;DHT22;6287;50.984;7.022;2023-03-24T02:13:10;13.50;99.90
12446;DHT22;6287;50.984;7.022;2023-03-24T02:18:40;13.50;99.90
12446;DHT22;6287;50.984;7.022;2023-03-24T02:27:46;13.50;99.90
12446;DHT22;6287;50.984;7.022;2023-03-24T02:47:33;13.60;99.90
12446;DHT22;6287;50.984;7.022;2023-03-24T02:53:11;13.70;99.90
12446;DHT22;6287;50.984;7.022;2023-03-24T02:55:48;13.70;99.90
12446;DHT22;6287;50.984;7.022;2023-03-24T03:01:31;13.60;99.90
12446;DHT22;6287;50.984;7.022;2023-03-24T03:04:18;13.60;99.90
12446;DHT22;6287;50.984;7.022;2023-03-24T03:06:51;13.60;99.90
12446;DHT22;6287;50.984;7.022;2023-03-24T03:09:20;13.60;99.90
12446;DHT22;6287;50.984;7.022;2023-03-24T03:11:52;13.60;99.90
12446;DHT22;6287;50.984;7.022;2023-03-24T03:14:31;13.60;99.90
12446;DHT22;6287;50.984;7.022;2023-03-24T03:17:21;13.60;99.90
12446;DHT22;6287;50.984;7.022;2023-03-24T03:19:53;13.60;99.90
12446;DHT22;6287;50.984;7.022;2023-03-24T03:22:26;13.70;99.90
12446;DHT22;6287;50.984;7.022;2023-03-24T03:24:59;13.70;99.90
12446;DHT22;6287;50.984;7.022;2023-03-24T03:27:31;13.70;99.90
12446;DHT22;6287;50.984;7.022;2023-03-24T03:32:38;13.70;99.90
12446;DHT22;6287;50.984;7.022;2023-03-24T03:35:13;13.70;99.90
12446;DHT22;6287;50.984;7.022;2023-03-24T03:40:26;13.70;99.90
12446;DHT22;6287;50.984;7.022;2023-03-24T03:42:55;13.70;99.90
12446;DHT22;6287;50.984;7.022;2023-03-24T03:45:25;13.70;99.90
12446;DHT22;6287;50.984;7.022;2023-03-24T03:47:53;13.70;99.90
12446;DHT22;6287;50.984;7.022;2023-03-24T03:50:19;13.70;99.90
12446;DHT22;6287;50.984;7.022;2023-03-24T03:52:46;13.70;99.90
12446;DHT22;6287;50.984;7.022;2023-03-24T03:55:12;13.70;99.90
12446;DHT22;6287;50.984;7.022;2023-03-24T03:57:38;13.70;99.90
12446;DHT22;6287;50.984;7.022;2023-03-24T04:00:06;13.70;99.90
12446;DHT22;6287;50.984;7.022;2023-03-24T04:08:10;13.80;99.90
12446;DHT22;6287;50.984;7.022;2023-03-24T04:14:14;13.80;99.90
12446;DHT22;6287;50.984;7.022;2023-03-24T04:22:05;13.90;99.90
12446;DHT22;6287;50.984;7.022;2023-03-24T04:24:55;13.90;99.90
12446;DHT22;6287;50.984;7.022;2023-03-24T04:38:03;13.90;99.90
12446;DHT22;6287;50.984;7.022;2023-03-24T04:40:36;13.90;99.90
12446;DHT22;6287;50.984;7.022;2023-03-24T04:43:09;14.00;99.90
12446;DHT22;6287;50.984;7.022;2023-03-24T04:45:38;14.00;99.90
12446;DHT22;6287;50.984;7.022;2023-03-24T04:48:05;14.00;99.90
12446;DHT22;6287;50.984;7.022;2023-03-24T04:50:41;14.00;99.90
12446;DHT22;6287;50.984;7.022;2023-03-24T04:53:08;14.00;99.90
12446;DHT22;6287;50.984;7.022;2023-03-24T04:58:20;13.70;99.90
12446;DHT22;6287;50.984;7.022;2023-03-24T05:00:49;13.20;99.90
12446;DHT22;6287;50.984;7.022;2023-03-24T05:03:17;12.90;99.90
12446;DHT22;6287;50.984;7.022;2023-03-24T05:05:44;12.60;99.90
12446;DHT22;6287;50.984;7.022;2023-03-24T05:08:11;12.40;99.90
12446;DHT22;6287;50.984;7.022;2023-03-24T05:10:37;12.20;99.90
12446;DHT22;6287;50.984;7.022;2023-03-24T05:13:04;12.00;99.90
12446;DHT22;6287;50.984;7.022;2023-03-24T05:15:30;12.10;99.90
12446;DHT22;6287;50.984;7.022;2023-03-24T05:17:56;12.10;99.90
12446;DHT22;6287;50.984;7.022;2023-03-24T05:20:25;12.00;99.90
12446;DHT22;6287;50.984;7.022;2023-03-24T05:22:51;12.00;99.90
12446;DHT22;6287;50.984;7.022;2023-03-24T05:25:18;12.10;99.90
12446;DHT22;6287;50.984;7.022;2023-03-24T05:27:47;12.00;99.90
12446;DHT22;6287;50.984;7.022;2023-03-24T05:30:14;12.10;99.90
12446;DHT22;6287;50.984;7.022;2023-03-24T05:32:40;12.00;99.90
12446;DHT22;6287;50.984;7.022;2023-03-24T05:35:09;12.00;99.90
12446;DHT22;6287;50.984;7.022;2023-03-24T05:37:34;12.00;99.90
12446;DHT22;6287;50.984;7.022;2023-03-24T05:40:00;12.00;99.90
12446;DHT22;6287;50.984;7.022;2023-03-24T05:42:25;12.00;99.90
12446;DHT22;6287;50.984;7.022;2023-03-24T05:44:51;12.00;99.90
12446;DHT22;6287;50.984;7.022;2023-03-24T05:47:17;11.90;99.90
12446;DHT22;6287;50.984;7.022;2023-03-24T05:49:46;11.90;99.90
12446;DHT22;6287;50.984;7.022;2023-03-24T05:52:17;11.90;99.90
12446;DHT22;6287;50.984;7.022;2023-03-24T05:54:45;11.80;99.90
12446;DHT22;6287;50.984;7.022;2023-03-24T05:57:19;11.80;99.90
12446;DHT22;6287;50.984;7.022;2023-03-24T05:59:45;11.90;99.90
12446;DHT22;6287;50.984;7.022;2023-03-24T06:02:11;11.90;99.90
12446;DHT22;6287;50.984;7.022;2023-03-24T06:04:37;11.90;99.90
12446;DHT22;6287;50.984;7.022;2023-03-24T06:07:03;11.90;99.90
12446;DHT22;6287;50.984;7.022;2023-03-24T06:09:30;11.90;99.90
12446;DHT22;6287;50.984;7.022;2023-03-24T06:12:04;11.90;99.90
12446;DHT22;6287;50.984;7.022;2023-03-24T06:14:34;11.90;99.90
12446;DHT22;6287;50.984;7.022;2023-03-24T06:17:00;11.90;99.90
12446;DHT22;6287;50.984;7.022;2023-03-24T06:19:26;11.90;99.90
12446;DHT22;6287;50.984;7.022;2023-03-24T06:21:55;12.00;99.90
12446;DHT22;6287;50.984;7.022;2023-03-24T06:24:28;12.00;99.90
12446;DHT22;6287;50.984;7.022;2023-03-24T06:26:58;12.00;99.90
12446;DHT22;6287;50.984;7.022;2023-03-24T06:29:30;12.00;99.90
12446;DHT22;6287;50.984;7.022;2023-03-24T06:31:56;12.00;99.90
12446;DHT22;6287;50.984;7.022;2023-03-24T06:34:21;12.00;99.90
12446;DHT22;6287;50.984;7.022;2023-03-24T06:36:49;12.00;99.90
12446;DHT22;6287;50.984;7.022;2023-03-24T06:39:17;12.00;99.90
12446;DHT22;6287;50.984;7.022;2023-03-24T06:41:43;12.00;99.90
12446;DHT22;6287;50.984;7.022;2023-03-24T06:44:13;12.00;99.90
12446;DHT22;6287;50.984;7.022;2023-03-24T06:46:39;11.90;99.90
12446;DHT22;6287;50.984;7.022;2023-03-24T06:49:06;11.90;99.90
12446;DHT22;6287;50.984;7.022;2023-03-24T06:51:31;11.80;99.90
12446;DHT22;6287;50.984;7.022;2023-03-24T06:53:57;11.70;99.90
12446;DHT22;6287;50.984;7.022;2023-03-24T06:56:22;11.70;99.90
12446;DHT22;6287;50.984;7.022;2023-03-24T06:58:48;11.70;99.90
12446;DHT22;6287;50.984;7.022;2023-03-24T07:01:14;11.70;99.90
12446;DHT22;6287;50.984;7.022;2023-03-24T07:03:40;11.70;99.90
12446;DHT22;6287;50.984;7.022;2023-03-24T07:06:07;11.60;99.90
12446;DHT22;6287;50.984;7.022;2023-03-24T07:08:34;11.60;99.90
12446;DHT22;6287;50.984;7.022;2023-03-24T07:11:02;11.50;99.90
12446;DHT22;6287;50.984;7.022;2023-03-24T07:13:31;11.50;99.90
12446;DHT22;6287;50.984;7.022;2023-03-24T07:15:56;11.40;99.90
12446;DHT22;6287;50.984;7.022;2023-03-24T07:18:24;11.40;99.90
12446;DHT22;6287;50.984;7.022;2023-03-24T07:20:50;11.40;99.90
12446;DHT22;6287;50.984;7.022;2023-03-24T07:23:16;11.40;99.90
12446;DHT22;6287;50.984;7.022;2023-03-24T07:25:42;11.40;99.90
12446;DHT22;6287;50.984;7.022;2023-03-24T07:28:09;11.30;99.90
12446;DHT22;6287;50.984;7.022;2023-03-24T07:30:35;11.40;99.90
12446;DHT22;6287;50.984;7.022;2023-03-24T07:33:06;11.30;99.90
12446;DHT22;6287;50.984;7.022;2023-03-24T07:35:35;11.40;99.90
12446;DHT22;6287;50.984;7.022;2023-03-24T07:38:03;11.40;99.90
12446;DHT22;6287;50.984;7.022;2023-03-24T07:40:29;11.40;99.90
12446;DHT22;6287;50.984;7.022;2023-03-24T07:43:02;11.50;99.90
12446;DHT22;6287;50.984;7.022;2023-03-24T07:45:31;11.70;99.90
12446;DHT22;6287;50.984;7.022;2023-03-24T07:47:59;11.80;99.90
12446;DHT22;6287;50.984;7.022;2023-03-24T07:50:33;11.90;99.90
12446;DHT22;6287;50.984;7.022;2023-03-24T07:52:59;11.90;99.90
12446;DHT22;6287;50.984;7.022;2023-03-24T07:55:26;12.00;99.90
12446;DHT22;6287;50.984;7.022;2023-03-24T07:57:51;11.90;99.90
12446;DHT22;6287;50.984;7.022;2023-03-24T08:00:20;11.90;99.90
12446;DHT22;6287;50.984;7.022;2023-03-24T08:02:51;11.90;99.90
12446;DHT22;6287;50.984;7.022;2023-03-24T08:05:22;11.80;99.90
12446;DHT22;6287;50.984;7.022;2023-03-24T08:07:51;11.90;99.90
12446;DHT22;6287;50.984;7.022;2023-03-24T08:10:29;11.90;99.90
12446;DHT22;6287;50.984;7.022;2023-03-24T08:12:56;11.90;99.90
12446;DHT22;6287;50.984;7.022;2023-03-24T08:15:22;12.00;99.90
12446;DHT22;6287;50.984;7.022;2023-03-24T08:17:49;12.20;99.90
12446;DHT22;6287;50.984;7.022;2023-03-24T08:20:15;12.30;99.90
12446;DHT22;6287;50.984;7.022;2023-03-24T08:22:43;12.40;99.90
12446;DHT22;6287;50.984;7.022;2023-03-24T08:25:11;12.50;99.90
12446;DHT22;6287;50.984;7.022;2023-03-24T08:27:38;12.60;99.90
12446;DHT22;6287;50.984;7.022;2023-03-24T08:30:08;12.70;99.90
12446;DHT22;6287;50.984;7.022;2023-03-24T08:32:42;12.80;99.90
12446;DHT22;6287;50.984;7.022;2023-03-24T08:35:10;13.00;99.90
12446;DHT22;6287;50.984;7.022;2023-03-24T08:37:37;13.30;99.90
12446;DHT22;6287;50.984;7.022;2023-03-24T08:40:03;13.60;99.90
12446;DHT22;6287;50.984;7.022;2023-03-24T08:42:32;14.00;99.90
12446;DHT22;6287;50.984;7.022;2023-03-24T08:44:58;14.20;99.90
12446;DHT22;6287;50.984;7.022;2023-03-24T08:47:23;14.20;99.90
12446;DHT22;6287;50.984;7.022;2023-03-24T08:49:55;14.00;99.90
12446;DHT22;6287;50.984;7.022;2023-03-24T08:52:22;13.70;99.90
12446;DHT22;6287;50.984;7.022;2023-03-24T08:54:48;13.70;99.90
12446;DHT22;6287;50.984;7.022;2023-03-24T08:57:13;13.80;99.90
12446;DHT22;6287;50.984;7.022;2023-03-24T08:59:44;14.00;99.90
12446;DHT22;6287;50.984;7.022;2023-03-24T09:02:14;14.30;99.90
12446;DHT22;6287;50.984;7.022;2023-03-24T09:04:40;14.30;99.90
12446;DHT22;6287;50.984;7.022;2023-03-24T09:07:12;14.30;99.90
12446;DHT22;6287;50.984;7.022;2023-03-24T09:09:40;14.30;99.90
12446;DHT22;6287;50.984;7.022;2023-03-24T09:12:06;14.40;99.90
12446;DHT22;6287;50.984;7.022;2023-03-24T09:14:32;14.30;99.90
12446;DHT22;6287;50.984;7.022;2023-03-24T09:17:02;14.10;99.90
12446;DHT22;6287;50.984;7.022;2023-03-24T09:19:28;14.10;99.90
12446;DHT22;6287;50.984;7.022;2023-03-24T09:21:54;14.00;99.90
12446;DHT22;6287;50.984;7.022;2023-03-24T09:24:19;14.10;99.90
12446;DHT22;6287;50.984;7.022;2023-03-24T09:26:47;14.20;99.90
12446;DHT22;6287;50.984;7.022;2023-03-24T09:29:14;14.40;99.90
12446;DHT22;6287;50.984;7.022;2023-03-24T09:31:39;14.70;99.90
12446;DHT22;6287;50.984;7.022;2023-03-24T09:34:05;15.00;99.90
12446;DHT22;6287;50.984;7.022;2023-03-24T09:36:35;15.20;99.90
12446;DHT22;6287;50.984;7.022;2023-03-24T09:39:01;15.50;99.90
12446;DHT22;6287;50.984;7.022;2023-03-24T09:41:29;16.00;99.90
12446;DHT22;6287;50.984;7.022;2023-03-24T09:44:06;16.40;99.90
12446;DHT22;6287;50.984;7.022;2023-03-24T09:46:42;16.60;99.90
12446;DHT22;6287;50.984;7.022;2023-03-24T09:49:16;16.60;99.90
12446;DHT22;6287;50.984;7.022;2023-03-24T09:51:47;16.70;99.90
12446;DHT22;6287;50.984;7.022;2023-03-24T09:54:27;16.60;99.80
12446;DHT22;6287;50.984;7.022;2023-03-24T09:56:57;16.30;99.40
12446;DHT22;6287;50.984;7.022;2023-03-24T09:59:39;16.10;99.90
12446;DHT22;6287;50.984;7.022;2023-03-24T10:02:16;16.00;99.90
12446;DHT22;6287;50.984;7.022;2023-03-24T10:04:45;16.00;99.90
12446;DHT22;6287;50.984;7.022;2023-03-24T10:07:16;15.70;99.60
12446;DHT22;6287;50.984;7.022;2023-03-24T10:09:49;15.70;99.90
12446;DHT22;6287;50.984;7.022;2023-03-24T10:12:36;15.80;99.90
12446;DHT22;6287;50.984;7.022;2023-03-24T10:29:20;18.20;98.60
12446;DHT22;6287;50.984;7.022;2023-03-24T10:32:18;18.30;97.70
12446;DHT22;6287;50.984;7.022;2023-03-24T10:34:51;18.50;98.50
12446;DHT22;6287;50.984;7.022;2023-03-24T10:37:21;18.70;97.80
12446;DHT22;6287;50.984;7.022;2023-03-24T10:39:49;18.70;95.90
12446;DHT22;6287;50.984;7.022;2023-03-24T10:42:25;18.20;96.00
12446;DHT22;6287;50.984;7.022;2023-03-24T10:44:52;18.10;96.70
12446;DHT22;6287;50.984;7.022;2023-03-24T10:47:23;18.40;98.20
12446;DHT22;6287;50.984;7.022;2023-03-24T10:50:08;18.90;97.50
12446;DHT22;6287;50.984;7.022;2023-03-24T10:52:42;19.20;96.70
12446;DHT22;6287;50.984;7.022;2023-03-24T10:55:19;19.40;97.80
12446;DHT22;6287;50.984;7.022;2023-03-24T10:57:50;19.80;97.50
12446;DHT22;6287;50.984;7.022;2023-03-24T11:00:28;19.80;95.00
12446;DHT22;6287;50.984;7.022;2023-03-24T11:03:00;19.40;94.90
12446;DHT22;6287;50.984;7.022;2023-03-24T11:05:40;19.10;94.70
12446;DHT22;6287;50.984;7.022;2023-03-24T11:08:26;18.80;96.00
12446;DHT22;6287;50.984;7.022;2023-03-24T11:10:56;18.60;96.00
12446;DHT22;6287;50.984;7.022;2023-03-24T11:18:36;18.40;95.20
12446;DHT22;6287;50.984;7.022;2023-03-24T11:21:04;18.40;98.10
12446;DHT22;6287;50.984;7.022;2023-03-24T11:23:40;18.80;97.00
12446;DHT22;6287;50.984;7.022;2023-03-24T11:28:52;18.70;94.30
12446;DHT22;6287;50.984;7.022;2023-03-24T11:31:32;18.50;93.50
12446;DHT22;6287;50.984;7.022;2023-03-24T11:34:07;18.50;93.70
12446;DHT22;6287;50.984;7.022;2023-03-24T11:36:38;18.30;93.50
12446;DHT22;6287;50.984;7.022;2023-03-24T11:39:25;18.00;94.80
12446;DHT22;6287;50.984;7.022;2023-03-24T11:53:10;17.60;94.40
12446;DHT22;6287;50.984;7.022;2023-03-24T12:01:22;17.20;95.90
12446;DHT22;6287;50.984;7.022;2023-03-24T12:12:36;16.90;96.60
12446;DHT22;6287;50.984;7.022;2023-03-24T12:27:00;16.80;96.30
12446;DHT22;6287;50.984;7.022;2023-03-24T12:42:44;17.30;97.70
12446;DHT22;6287;50.984;7.022;2023-03-24T12:45:20;18.10;94.90
12446;DHT22;6287;50.984;7.022;2023-03-24T12:58:51;18.40;93.10
12446;DHT22;6287;50.984;7.022;2023-03-24T13:06:44;17.70;92.90
12446;DHT22;6287;50.984;7.022;2023-03-24T13:12:23;17.50;93.10
12446;DHT22;6287;50.984;7.022;2023-03-24T13:18:02;18.30;92.70
12446;DHT22;6287;50.984;7.022;2023-03-24T13:20:47;18.30;91.80
12446;DHT22;6287;50.984;7.022;2023-03-24T13:23:37;18.60;90.30
12446;DHT22;6287;50.984;7.022;2023-03-24T13:37:38;17.90;90.40
12446;DHT22;6287;50.984;7.022;2023-03-24T13:40:14;17.60;89.70
12446;DHT22;6287;50.984;7.022;2023-03-24T13:42:46;17.80;90.50
12446;DHT22;6287;50.984;7.022;2023-03-24T13:48:05;19.30;90.70
12446;DHT22;6287;50.984;7.022;2023-03-24T13:53:16;21.10;80.80
12446;DHT22;6287;50.984;7.022;2023-03-24T13:55:52;20.80;81.10
12446;DHT22;6287;50.984;7.022;2023-03-24T13:58:23;20.00;80.70
12446;DHT22;6287;50.984;7.022;2023-03-24T14:03:35;18.80;83.10
12446;DHT22;6287;50.984;7.022;2023-03-24T14:06:10;18.60;82.90
12446;DHT22;6287;50.984;7.022;2023-03-24T14:14:18;17.90;88.10
12446;DHT22;6287;50.984;7.022;2023-03-24T14:19:18;17.00;93.10
12446;DHT22;6287;50.984;7.022;2023-03-24T14:21:49;16.60;94.00
12446;DHT22;6287;50.984;7.022;2023-03-24T14:24:25;16.20;95.90
12446;DHT22;6287;50.984;7.022;2023-03-24T14:26:55;16.00;99.90
12446;DHT22;6287;50.984;7.022;2023-03-24T14:29:46;16.10;99.90
12446;DHT22;6287;50.984;7.022;2023-03-24T14:32:18;16.40;99.90
12446;DHT22;6287;50.984;7.022;2023-03-24T14:34:52;16.50;99.80
12446;DHT22;6287;50.984;7.022;2023-03-24T14:37:19;16.40;99.10
12446;DHT22;6287;50.984;7.022;2023-03-24T14:39:47;16.20;97.60
12446;DHT22;6287;50.984;7.022;2023-03-24T14:44:59;15.80;99.10
12446;DHT22;6287;50.984;7.022;2023-03-24T14:47:26;15.60;98.40
12446;DHT22;6287;50.984;7.022;2023-03-24T14:49:58;15.40;98.10
12446;DHT22;6287;50.984;7.022;2023-03-24T14:52:49;15.40;98.00
12446;DHT22;6287;50.984;7.022;2023-03-24T14:55:16;15.20;98.00
12446;DHT22;6287;50.984;7.022;2023-03-24T14:57:51;15.20;98.70
12446;DHT22;6287;50.984;7.022;2023-03-24T15:00:41;15.20;98.70
12446;DHT22;6287;50.984;7.022;2023-03-24T15:06:07;16.70;96.90
12446;DHT22;6287;50.984;7.022;2023-03-24T15:08:38;17.40;96.10
12446;DHT22;6287;50.984;7.022;2023-03-24T15:11:08;17.90;95.20
12446;DHT22;6287;50.984;7.022;2023-03-24T15:24:00;18.40;93.30
12446;DHT22;6287;50.984;7.022;2023-03-24T15:26:33;18.50;93.30
12446;DHT22;6287;50.984;7.022;2023-03-24T15:29:05;19.00;93.40
12446;DHT22;6287;50.984;7.022;2023-03-24T15:31:31;19.90;91.80
12446;DHT22;6287;50.984;7.022;2023-03-24T15:34:29;19.80;91.30
12446;DHT22;6287;50.984;7.022;2023-03-24T15:36:58;19.30;91.80
12446;DHT22;6287;50.984;7.022;2023-03-24T15:39:33;18.80;92.10
12446;DHT22;6287;50.984;7.022;2023-03-24T15:41:59;18.40;92.50
12446;DHT22;6287;50.984;7.022;2023-03-24T15:44:27;18.00;92.30
12446;DHT22;6287;50.984;7.022;2023-03-24T15:46:57;18.00;92.90
12446;DHT22;6287;50.984;7.022;2023-03-24T15:49:29;18.60;92.50
12446;DHT22;6287;50.984;7.022;2023-03-24T15:54:46;18.10;92.90
12446;DHT22;6287;50.984;7.022;2023-03-24T15:59:48;16.90;94.40
12446;DHT22;6287;50.984;7.022;2023-03-24T16:04:50;16.30;95.80
12446;DHT22;6287;50.984;7.022;2023-03-24T16:07:25;16.10;96.30
12446;DHT22;6287;50.984;7.022;2023-03-24T16:09:59;15.90;96.90
12446;DHT22;6287;50.984;7.022;2023-03-24T16:12:34;15.70;97.20
12446;DHT22;6287;50.984;7.022;2023-03-24T16:15:00;15.50;97.60
12446;DHT22;6287;50.984;7.022;2023-03-24T16:17:29;15.40;97.90
12446;DHT22;6287;50.984;7.022;2023-03-24T16:19:54;15.20;99.00
12446;DHT22;6287;50.984;7.022;2023-03-24T16:22:20;15.10;99.90
12446;DHT22;6287;50.984;7.022;2023-03-24T16:24:46;14.90;99.90
12446;DHT22;6287;50.984;7.022;2023-03-24T16:27:16;14.60;99.90
12446;DHT22;6287;50.984;7.022;2023-03-24T16:29:44;14.10;99.90
12446;DHT22;6287;50.984;7.022;2023-03-24T16:32:14;13.70;99.90
12446;DHT22;6287;50.984;7.022;2023-03-24T16:34:39;13.50;99.90
12446;DHT22;6287;50.984;7.022;2023-03-24T16:37:05;13.40;99.90
12446;DHT22;6287;50.984;7.022;2023-03-24T16:39:32;13.20;99.90
12446;DHT22;6287;50.984;7.022;2023-03-24T16:42:01;13.10;99.90
12446;DHT22;6287;50.984;7.022;2023-03-24T16:44:26;13.00;99.90
12446;DHT22;6287;50.984;7.022;2023-03-24T16:46:53;12.90;99.90
12446;DHT22;6287;50.984;7.022;2023-03-24T16:49:19;12.80;99.90
12446;DHT22;6287;50.984;7.022;2023-03-24T16:51:47;12.70;99.90
12446;DHT22;6287;50.984;7.022;2023-03-24T16:54:13;12.50;99.90
12446;DHT22;6287;50.984;7.022;2023-03-24T16:56:39;12.40;99.90
12446;DHT22;6287;50.984;7.022;2023-03-24T16:59:08;12.40;99.90
12446;DHT22;6287;50.984;7.022;2023-03-24T17:01:36;12.30;99.90
12446;DHT22;6287;50.984;7.022;2023-03-24T17:06:31;12.30;99.90
12446;DHT22;6287;50.984;7.022;2023-03-24T17:09:01;12.30;99.90
12446;DHT22;6287;50.984;7.022;2023-03-24T17:11:59;12.40;99.90
12446;DHT22;6287;50.984;7.022;2023-03-24T17:14:26;12.40;99.90
12446;DHT22;6287;50.984;7.022;2023-03-24T17:16:52;12.50;99.90
12446;DHT22;6287;50.984;7.022;2023-03-24T17:19:21;12.50;99.90
12446;DHT22;6287;50.984;7.022;2023-03-24T17:24:17;12.20;99.90
12446;DHT22;6287;50.984;7.022;2023-03-24T17:26:45;12.10;99.90
12446;DHT22;6287;50.984;7.022;2023-03-24T17:29:11;11.90;99.90
12446;DHT22;6287;50.984;7.022;2023-03-24T17:31:40;11.80;99.90
12446;DHT22;6287;50.984;7.022;2023-03-24T17:34:12;11.70;99.90
12446;DHT22;6287;50.984;7.022;2023-03-24T17:36:39;11.60;99.90
12446;DHT22;6287;50.984;7.022;2023-03-24T17:39:07;11.50;99.90
12446;DHT22;6287;50.984;7.022;2023-03-24T17:41:36;11.50;99.90
12446;DHT22;6287;50.984;7.022;2023-03-24T17:44:04;11.40;99.90
12446;DHT22;6287;50.984;7.022;2023-03-24T17:46:30;11.30;99.90
12446;DHT22;6287;50.984;7.022;2023-03-24T17:48:55;11.30;99.90
12446;DHT22;6287;50.984;7.022;2023-03-24T17:51:23;11.30;99.90
12446;DHT22;6287;50.984;7.022;2023-03-24T17:53:48;11.20;99.90
12446;DHT22;6287;50.984;7.022;2023-03-24T17:56:15;11.20;99.90
12446;DHT22;6287;50.984;7.022;2023-03-24T17:58:40;11.10;99.90
12446;DHT22;6287;50.984;7.022;2023-03-24T18:01:11;11.10;99.90
12446;DHT22;6287;50.984;7.022;2023-03-24T18:03:39;11.00;99.90
12446;DHT22;6287;50.984;7.022;2023-03-24T18:06:09;11.00;99.90
12446;DHT22;6287;50.984;7.022;2023-03-24T18:08:40;11.00;99.90
12446;DHT22;6287;50.984;7.022;2023-03-24T18:11:10;10.90;99.90
12446;DHT22;6287;50.984;7.022;2023-03-24T18:13:37;10.90;99.90
12446;DHT22;6287;50.984;7.022;2023-03-24T18:16:03;10.90;99.90
12446;DHT22;6287;50.984;7.022;2023-03-24T18:18:31;10.90;99.90
12446;DHT22;6287;50.984;7.022;2023-03-24T18:20:57;10.80;99.90
12446;DHT22;6287;50.984;7.022;2023-03-24T18:23:25;10.80;99.90
12446;DHT22;6287;50.984;7.022;2023-03-24T18:25:58;10.80;99.90
12446;DHT22;6287;50.984;7.022;2023-03-24T18:28:25;10.70;99.90
12446;DHT22;6287;50.984;7.022;2023-03-24T18:30:53;10.60;99.90
12446;DHT22;6287;50.984;7.022;2023-03-24T18:33:22;10.60;99.90
12446;DHT22;6287;50.984;7.022;2023-03-24T18:35:51;10.60;99.90
12446;DHT22;6287;50.984;7.022;2023-03-24T18:38:20;10.50;99.90
12446;DHT22;6287;50.984;7.022;2023-03-24T18:41:16;10.50;99.90
12446;DHT22;6287;50.984;7.022;2023-03-24T18:43:42;10.50;99.90
12446;DHT22;6287;50.984;7.022;2023-03-24T18:46:12;10.50;99.90
12446;DHT22;6287;50.984;7.022;2023-03-24T18:48:39;10.50;99.90
12446;DHT22;6287;50.984;7.022;2023-03-24T18:51:09;10.50;99.90
12446;DHT22;6287;50.984;7.022;2023-03-24T18:53:35;10.40;99.90
12446;DHT22;6287;50.984;7.022;2023-03-24T18:56:04;10.40;99.90
12446;DHT22;6287;50.984;7.022;2023-03-24T18:58:32;10.40;99.90
12446;DHT22;6287;50.984;7.022;2023-03-24T19:01:04;10.40;99.90
12446;DHT22;6287;50.984;7.022;2023-03-24T19:03:31;10.40;99.90
12446;DHT22;6287;50.984;7.022;2023-03-24T19:06:00;10.40;99.90
12446;DHT22;6287;50.984;7.022;2023-03-24T19:08:27;10.40;99.90
12446;DHT22;6287;50.984;7.022;2023-03-24T19:10:55;10.50;99.90
12446;DHT22;6287;50.984;7.022;2023-03-24T19:13:23;10.50;99.90
12446;DHT22;6287;50.984;7.022;2023-03-24T19:15:50;10.50;99.90
12446;DHT22;6287;50.984;7.022;2023-03-24T19:18:23;10.50;99.90
12446;DHT22;6287;50.984;7.022;2023-03-24T19:20:57;10.40;99.90
12446;DHT22;6287;50.984;7.022;2023-03-24T19:23:34;10.50;99.90
12446;DHT22;6287;50.984;7.022;2023-03-24T19:26:00;10.40;99.90
12446;DHT22;6287;50.984;7.022;2023-03-24T19:28:31;10.40;99.90
12446;DHT22;6287;50.984;7.022;2023-03-24T19:31:02;10.40;99.90
12446;DHT22;6287;50.984;7.022;2023-03-24T19:33:31;10.40;99.90
12446;DHT22;6287;50.984;7.022;2023-03-24T19:35:57;10.50;99.90
12446;DHT22;6287;50.984;7.022;2023-03-24T19:38:23;10.50;99.90
12446;DHT22;6287;50.984;7.022;2023-03-24T19:40:53;10.40;99.90
12446;DHT22;6287;50.984;7.022;2023-03-24T19:43:19;10.40;99.90
12446;DHT22;6287;50.984;7.022;2023-03-24T19:45:52;10.40;99.90